Latest Weather Observations for Horn Island

IDQ60801

Issued at 3:02 am EST Sunday 25 June 2017 (issued every 30 minutes, with the page automatically refreshed every 10 minutes)

About weather observations | Map of weather stations | Latest weather observations for QLD | Other Formats
Station Details ID: 027058 Name: HORN ISLAND Lat: -10.58 Lon: 142.29 Height: 4.0 m
Data from the previous 72 hours. | See also: Recent months at Horn Island
Date/Time
EST
Temp
°C
App
Temp
°C
Dew
Point
°C
Rel
Hum
%
Delta-T
°C
Wind Press
QNH
hPa
Press
MSL
hPa
Rain since
9am
mm
Dir  Spd
km/h
Gust
km/h
Spd
kts
Gust
kts
25/03:00am 23.7 24.9 21.4 87 1.5 SSE 17 22 9 12 1011.0 1011.0 0.0
25/02:30am 23.8 25.3 21.3 86 1.6 SSE 15 20 8 11 1011.4 - 0.0
25/02:00am 23.8 24.8 21.1 85 1.8 SSE 17 24 9 13 1011.6 - 0.0
25/01:30am 23.9 25.4 21.2 85 1.8 SSE 15 20 8 11 1011.9 - 0.0
25/01:00am 23.9 24.9 21.0 84 1.9 SSE 17 22 9 12 1012.2 - 0.0
25/12:30am 23.9 25.3 21.0 84 1.9 SSE 15 26 8 14 1012.3 - 0.0
25/12:00am 23.9 24.9 21.0 84 1.9 SSE 17 28 9 15 1012.4 1012.4 0.0
 
Date/Time
EST
Temp
°C
App
Temp
°C
Dew
Point
°C
Rel
Hum
%
Delta-T
°C
Wind Press
QNH
hPa
Press
MSL
hPa
Rain since
9am
mm
Dir  Spd
km/h
Gust
km/h
Spd
kts
Gust
kts
24/11:30pm 24.0 24.5 20.9 83 2.0 SSE 19 28 10 15 1012.4 - 0.0
24/11:00pm 24.1 24.7 21.0 83 2.0 SSE 19 24 10 13 1012.5 - 0.0
24/10:30pm 24.1 25.2 21.2 84 1.9 SSE 17 26 9 14 1012.4 - 0.0
24/10:00pm 24.1 25.1 21.0 83 2.0 SSE 17 24 9 13 1012.4 - 0.0
24/09:30pm 24.2 25.1 20.9 82 2.2 SSE 17 26 9 14 1012.4 - 0.0
24/09:00pm 24.5 24.5 21.0 81 2.3 SE 22 33 12 18 1012.3 1012.3 0.0
24/08:30pm 24.5 24.8 20.8 80 2.4 SE 20 32 11 17 1012.0 - 0.0
24/08:00pm 24.6 25.1 20.9 80 2.4 SSE 19 30 10 16 1011.8 - 0.0
24/07:30pm 24.8 25.2 20.7 78 2.7 SE 19 26 10 14 1011.5 - 0.0
24/07:00pm 25.0 25.3 20.7 77 2.8 SSE 20 30 11 16 1011.0 - 0.0
24/06:30pm 25.4 25.8 20.6 75 3.1 SE 19 28 10 15 1010.7 - 0.0
24/06:00pm 25.8 26.1 20.4 72 3.5 SE 19 32 10 17 1010.4 1010.4 0.0
24/05:30pm 26.4 25.4 20.5 70 3.9 SE 26 35 14 19 1010.2 - 0.0
24/05:00pm 27.0 25.8 20.8 69 4.1 SE 28 39 15 21 1010.0 - 0.0
24/04:30pm 27.2 26.6 21.2 69 4.0 ESE 26 35 14 19 1009.9 - 0.0
24/04:00pm 27.5 25.8 21.3 69 4.1 ESE 32 43 17 23 1009.9 - 0.0
24/03:30pm 28.2 27.1 21.0 65 4.8 ESE 28 35 15 19 1009.8 - 0.0
24/03:00pm 28.2 25.7 20.2 62 5.3 ESE 33 44 18 24 1009.8 1009.8 0.0
24/02:30pm 28.2 27.1 21.0 65 4.8 ESE 28 41 15 22 1009.9 - 0.0
24/02:00pm 28.4 27.2 20.9 64 5.0 ESE 28 37 15 20 1010.1 - 0.0
24/01:30pm 28.7 27.7 21.2 64 5.0 SE 28 44 15 24 1010.5 - 0.0
24/01:00pm 28.3 26.7 21.6 67 4.5 ESE 32 39 17 21 1010.7 - 0.0
24/12:30pm 28.5 27.5 21.3 65 4.8 ESE 28 35 15 19 1011.2 - 0.0
24/12:00pm 27.4 25.9 21.0 68 4.2 ESE 30 41 16 22 1011.7 1011.7 0.0
24/11:30am 27.7 26.6 21.7 70 4.0 ESE 30 39 16 21 1012.0 - 0.0
24/11:00am 27.4 26.5 21.4 70 4.0 SE 28 37 15 20 1012.3 - 0.0
24/10:30am 26.9 26.3 21.2 71 3.8 ESE 26 41 14 22 1012.4 - 0.0
24/10:00am 26.2 25.7 21.4 75 3.2 SE 26 35 14 19 1012.5 - 0.0
24/09:30am 25.8 25.6 22.1 80 2.5 ESE 26 33 14 18 1012.4 - 0.0
24/09:00am 24.8 25.8 21.7 83 2.1 SE 19 28 10 15 1012.3 1012.3 2.4
24/08:30am 24.2 26.2 22.3 89 1.3 SSE 15 22 8 12 1012.2 - 2.4
24/08:00am 23.7 25.6 22.1 91 1.1 SSE 15 22 8 12 1011.9 - 2.4
24/07:51am 23.5 25.1 22.1 92 0.9 SE 17 24 9 13 1011.7 - 2.4
24/07:34am 23.3 24.3 22.1 93 0.8 SE 20 28 11 15 1011.6 - 2.4
24/07:30am 23.3 24.3 22.1 93 0.8 SE 20 28 11 15 1011.7 - 2.4
24/07:25am 23.3 24.2 21.9 92 0.9 SE 20 30 11 16 1011.7 - 2.4
24/07:22am 23.4 24.4 22.2 93 0.8 SE 20 30 11 16 1011.6 - 2.4
24/07:00am 23.0 23.8 21.8 93 0.8 ESE 20 28 11 15 1011.7 - 2.2
24/06:55am 23.1 23.9 21.7 92 0.9 ESE 20 28 11 15 1011.7 - 2.2
24/06:48am 23.6 25.8 21.9 90 1.1 SE 13 22 7 12 1011.7 - 1.4
24/06:30am 23.7 25.9 21.8 89 1.3 SSE 13 19 7 10 1011.4 - 1.4
24/06:22am 23.7 26.0 22.0 90 1.1 SSE 13 19 7 10 1011.3 - 1.4
24/06:05am 23.6 25.4 21.9 90 1.1 SE 15 22 8 12 1011.2 - 1.4
24/06:00am 23.7 25.5 21.8 89 1.3 SE 15 22 8 12 1011.2 1011.2 1.4
24/05:30am 23.6 25.4 21.9 90 1.1 SE 15 20 8 11 1011.0 - 1.4
24/05:00am 23.2 25.4 21.8 92 0.9 SSE 13 19 7 10 1011.0 - 1.4
24/04:30am 23.3 25.1 21.9 92 0.9 SSE 15 24 8 13 1010.9 - 1.4
24/04:00am 23.3 25.1 21.9 92 0.9 SSE 15 22 8 12 1010.9 - 1.4
24/03:44am 23.1 24.7 22.1 94 0.7 SSE 17 24 9 13 1011.0 - 1.2
24/03:30am 23.1 23.2 21.9 93 0.8 ESE 24 33 13 18 1011.1 - 1.2
24/03:17am 23.4 24.9 22.0 92 0.9 SE 17 26 9 14 1011.3 - 0.8
24/03:03am 23.2 25.5 22.0 93 0.8 SE 13 20 7 11 1011.2 - 0.2
24/03:00am 23.2 25.1 22.0 93 0.8 SE 15 20 8 11 1011.2 1011.2 0.2
24/02:43am 23.3 25.0 21.7 91 1.1 SE 15 24 8 13 1011.4 - 0.0
24/02:38am 23.3 25.0 21.7 91 1.1 SE 15 24 8 13 1011.3 - 0.0
24/02:30am 23.2 24.1 21.6 91 1.1 SE 19 28 10 15 1011.3 - 0.0
24/02:17am 23.9 23.9 21.0 84 1.9 SE 22 37 12 20 1011.6 - 0.0
24/02:00am 24.5 25.0 20.8 80 2.4 SE 19 26 10 14 1011.6 - 0.0
24/01:30am 24.3 24.6 20.8 81 2.3 SE 20 30 11 16 1011.9 - 0.0
24/01:00am 24.2 24.7 20.9 82 2.2 SE 19 26 10 14 1012.2 - 0.0
24/12:30am 24.1 24.7 21.0 83 2.0 SE 19 28 10 15 1012.4 - 0.0
24/12:00am 23.9 24.0 21.2 85 1.8 SE 22 30 12 16 1012.7 1012.7 0.0
 
Date/Time
EST
Temp
°C
App
Temp
°C
Dew
Point
°C
Rel
Hum
%
Delta-T
°C
Wind Press
QNH
hPa
Press
MSL
hPa
Rain since
9am
mm
Dir  Spd
km/h
Gust
km/h
Spd
kts
Gust
kts
23/11:30pm 24.0 24.1 21.1 84 1.9 SSE 22 32 12 17 1013.1 - 0.0
23/11:00pm 24.1 24.0 20.8 82 2.2 SSE 22 35 12 19 1013.2 - 0.0
23/10:30pm 24.2 23.8 20.9 82 2.2 SE 24 39 13 21 1013.4 - 0.0
23/10:00pm 24.6 24.9 20.7 79 2.6 SSE 20 30 11 16 1013.5 - 0.0
23/09:30pm 24.7 24.6 20.8 79 2.6 SE 22 33 12 18 1013.4 - 0.0
23/09:00pm 24.9 24.4 20.8 78 2.7 SE 24 35 13 19 1013.3 1013.3 0.0
23/08:30pm 25.0 25.0 20.9 78 2.7 SE 22 33 12 18 1013.0 - 0.0
23/08:00pm 25.1 24.6 20.8 77 2.8 SE 24 35 13 19 1012.7 - 0.0
23/07:30pm 25.1 24.9 20.6 76 2.9 SE 22 33 12 18 1012.5 - 0.0
23/07:00pm 25.3 25.4 20.3 74 3.3 SE 20 30 11 16 1012.1 - 0.0
23/06:30pm 25.4 25.4 20.2 73 3.4 SE 20 33 11 18 1011.8 - 0.0
23/06:00pm 25.8 24.8 20.4 72 3.5 SE 26 41 14 22 1011.6 1011.6 0.0
23/05:30pm 26.4 25.3 20.3 69 4.0 SE 26 39 14 21 1011.4 - 0.0
23/05:00pm 26.9 25.9 20.5 68 4.2 SE 26 44 14 24 1011.3 - 0.0
23/04:30pm 27.0 24.4 19.9 65 4.6 ESE 33 44 18 24 1011.2 - 0.0
23/04:00pm 27.6 25.4 20.4 65 4.7 SE 32 46 17 25 1011.2 - 0.0
23/03:30pm 27.5 25.0 20.1 64 4.8 SE 33 48 18 26 1011.2 - 0.0
23/03:00pm 28.3 26.9 21.1 65 4.8 ESE 30 44 16 24 1011.3 1011.3 0.0
23/02:30pm 28.5 26.0 20.8 63 5.1 SE 35 50 19 27 1011.4 - 0.0
23/02:00pm 28.0 25.2 19.5 60 5.5 SE 33 46 18 25 1011.7 - 0.0
23/01:30pm 27.8 24.5 20.1 63 5.0 SE 37 50 20 27 1012.2 - 0.0
23/01:00pm 28.1 25.8 20.6 63 4.9 ESE 33 44 18 24 1012.7 - 0.0
23/12:30pm 28.0 25.2 21.1 66 4.6 ESE 37 50 20 27 1012.8 - 0.0
23/12:00pm 27.7 25.4 20.5 65 4.7 ESE 33 46 18 25 1013.2 1013.2 0.0
23/11:30am 28.7 27.8 22.2 68 4.4 SE 30 44 16 24 1013.3 - 0.0
23/11:00am 27.6 25.6 20.7 66 4.6 SE 32 44 17 24 1013.5 - 0.0
23/10:30am 27.8 27.0 21.6 69 4.1 SE 28 43 15 23 1013.7 - 0.0
23/10:00am 27.1 25.9 21.6 72 3.7 SE 30 39 16 21 1013.9 - 0.0
23/09:30am 26.7 26.5 21.2 72 3.6 SE 24 37 13 20 1014.0 - 0.0
23/09:00am 25.5 25.5 21.0 76 3.0 SSE 22 32 12 17 1014.0 1014.0 1.6
23/08:30am 25.3 25.6 21.6 80 2.5 SSE 22 30 12 16 1013.9 - 1.6
23/08:00am 24.4 25.4 21.1 82 2.2 SSE 17 26 9 14 1013.5 - 1.6
23/07:30am 24.3 24.9 21.0 82 2.2 SSE 19 24 10 13 1013.2 - 1.6
23/07:00am 24.3 24.8 20.8 81 2.3 SSE 19 28 10 15 1013.0 - 1.6
23/06:30am 24.4 25.0 21.1 82 2.2 SSE 19 28 10 15 1012.8 - 1.6
23/06:00am 24.3 24.6 20.8 81 2.3 SSE 20 28 11 15 1012.6 1012.6 1.6
23/05:30am 24.3 25.1 21.4 84 1.9 SSE 19 33 10 18 1012.5 - 1.6
23/05:00am 23.9 25.1 21.4 86 1.6 SSE 17 24 9 13 1012.4 - 1.6
23/04:30am 23.5 24.8 21.6 89 1.3 SSE 17 24 9 13 1012.4 - 1.6
23/04:01am 23.1 24.6 21.2 89 1.2 SSE 15 24 8 13 1012.4 - 1.6
23/04:00am 23.1 24.2 21.2 89 1.2 SSE 17 24 9 13 1012.4 - 1.6
23/03:55am 23.1 23.9 21.4 90 1.1 SE 19 32 10 17 1012.4 - 1.6
23/03:42am 23.2 24.3 22.0 93 0.8 SE 19 37 10 20 1012.8 - 1.2
23/03:30am 23.4 24.8 21.8 91 1.1 SSE 17 24 9 13 1012.7 - 0.2
23/03:29am 23.4 24.8 21.8 91 1.1 SSE 17 24 9 13 1012.7 - 0.2
23/03:15am 23.4 24.8 21.8 91 1.1 SSE 17 22 9 12 1012.7 - 0.2
23/03:00am 23.6 23.5 21.5 88 1.4 SE 24 37 13 20 1012.8 1012.8 0.2
23/02:57am 23.8 24.0 21.3 86 1.6 SSE 22 37 12 20 1012.9 - 0.0
23/02:30am 24.4 24.5 21.1 82 2.2 SSE 22 32 12 17 1012.8 - 0.0
23/02:00am 24.6 24.6 20.9 80 2.4 SE 22 33 12 18 1013.1 - 0.0
23/01:30am 24.9 24.8 20.8 78 2.7 SE 22 33 12 18 1013.3 - 0.0
23/01:00am 25.1 24.7 21.0 78 2.7 SE 24 35 13 19 1013.4 - 0.0
23/12:30am 24.6 25.1 21.1 81 2.3 SSE 20 26 11 14 1013.4 - 0.0
23/12:00am 24.8 24.1 21.1 80 2.4 SSE 26 37 14 20 1013.6 1013.6 0.0
 
Date/Time
EST
Temp
°C
App
Temp
°C
Dew
Point
°C
Rel
Hum
%
Delta-T
°C
Wind Press
QNH
hPa
Press
MSL
hPa
Rain since
9am
mm
Dir  Spd
km/h
Gust
km/h
Spd
kts
Gust
kts
22/11:30pm 24.8 24.8 20.9 79 2.6 SSE 22 35 12 19 1013.7 - 0.0
22/11:00pm 24.6 24.2 20.9 80 2.4 SE 24 41 13 22 1013.7 - 0.0
22/10:30pm 24.7 24.6 21.4 82 2.2 SE 24 39 13 21 1013.9 - 0.0
22/10:00pm 24.6 25.4 21.7 84 1.9 SE 20 32 11 17 1014.0 - 0.0
22/09:30pm 24.6 24.7 21.9 85 1.8 SE 24 41 13 22 1014.0 - 0.0
22/09:00pm 24.8 23.8 21.9 84 1.9 SE 30 44 16 24 1013.9 1013.9 0.0
22/08:30pm 24.8 24.0 21.7 83 2.1 SE 28 39 15 21 1013.7 - 0.0
22/08:00pm 25.0 24.5 21.5 81 2.3 SE 26 37 14 20 1013.5 - 0.0
22/07:30pm 25.1 24.8 21.8 82 2.2 SE 26 41 14 22 1013.0 - 0.0
22/07:00pm 25.5 23.9 21.6 79 2.6 SE 32 44 17 24 1012.6 - 0.0
22/06:30pm 25.8 24.3 21.7 78 2.7 SE 32 48 17 26 1012.3 - 0.0
22/06:00pm 25.9 24.7 21.6 77 2.9 SE 30 48 16 26 1011.9 1011.9 0.0
22/05:58pm 25.9 24.7 21.6 77 2.9 SE 30 48 16 26 1011.9 - 0.0
22/05:30pm 26.0 25.0 21.9 78 2.7 ESE 30 44 16 24 1011.7 - 0.0
22/05:00pm 25.6 23.1 21.7 79 2.6 ESE 37 56 20 30 1011.4 - 0.0
22/04:52pm 25.8 23.7 21.7 78 2.7 ESE 35 54 19 29 1011.4 - 0.0
22/04:40pm 25.7 25.1 22.6 83 2.1 SE 30 43 16 23 1011.4 - 0.0
22/04:30pm 25.2 23.7 22.7 86 1.7 ESE 35 56 19 30 1011.3 - 0.0
22/04:20pm 26.0 24.0 21.9 78 2.7 ESE 35 65 19 35 1011.2 - 0.0
22/04:02pm 25.7 24.4 22.4 82 2.2 ESE 33 46 18 25 1011.2 - 0.0
22/04:00pm 25.8 24.6 22.7 83 2.1 ESE 33 46 18 25 1011.2 - 0.0
22/03:51pm 25.2 24.4 23.1 88 1.4 ESE 32 50 17 27 1011.2 - 0.0
22/03:42pm 25.4 24.4 22.7 85 1.8 ESE 32 44 17 24 1011.4 - 0.0
22/03:30pm 26.4 25.4 22.7 80 2.5 ESE 32 46 17 25 1011.3 - 0.0
22/03:22pm 26.1 25.0 22.8 82 2.2 ESE 33 46 18 25 1011.3 - 0.0
22/03:00pm 26.0 24.5 22.7 82 2.2 ESE 35 50 19 27 1011.5 1011.5 0.0
22/02:58pm 26.1 24.4 22.4 80 2.5 ESE 35 50 19 27 1011.4 - 0.0
22/02:49pm 28.2 26.7 22.7 72 3.7 ESE 35 54 19 29 1011.3 - 0.0
22/02:30pm 28.0 26.5 22.7 73 3.6 ESE 35 50 19 27 1011.5 - 0.0
22/02:08pm 28.3 26.4 22.1 69 4.2 ESE 35 54 19 29 1011.6 - 0.0
22/02:00pm 28.2 25.6 22.2 70 4.0 ESE 39 54 21 29 1011.6 - 0.0
22/01:32pm 28.1 25.7 21.9 69 4.2 ESE 37 57 20 31 1012.0 - 0.0
22/01:30pm 28.6 26.5 22.3 68 4.3 ESE 37 52 20 28 1012.0 - 0.0
22/01:00pm 28.2 26.3 22.7 72 3.7 ESE 37 52 20 28 1012.3 - 0.0
22/12:34pm 27.8 26.3 22.7 74 3.5 ESE 35 54 19 29 1012.5 - 0.0
22/12:30pm 27.6 25.4 22.1 72 3.7 ESE 37 54 20 29 1012.7 - 0.0
22/12:06pm 27.8 26.4 22.3 72 3.7 SE 33 52 18 28 1012.7 - 0.0
22/12:00pm 27.7 26.4 22.4 73 3.6 SE 33 44 18 24 1012.8 1012.8 0.0
22/11:49am 26.8 25.6 22.6 78 2.8 SE 33 52 18 28 1013.0 - 0.0
22/11:48am 26.7 25.3 22.3 77 3.0 SE 33 52 18 28 1013.0 - 0.0
22/11:37am 26.0 24.7 23.1 84 2.0 ESE 35 48 19 26 1013.1 - 0.0
22/11:30am 26.3 24.9 22.2 78 2.8 ESE 33 50 18 27 1013.3 - 0.0
22/11:19am 28.1 26.5 22.6 72 3.7 ESE 35 54 19 29 1013.2 - 0.0
22/11:00am 27.7 26.0 22.4 73 3.6 SE 35 52 19 28 1013.4 - 0.0
22/10:38am 27.1 25.1 21.8 73 3.5 ESE 35 59 19 32 1013.6 - 0.0
22/10:30am 28.0 27.3 22.5 72 3.7 ESE 30 41 16 22 1013.6 - 0.0
22/10:00am 27.1 26.3 22.3 75 3.2 ESE 30 46 16 25 1014.0 - 0.0
22/09:30am 26.9 25.7 22.3 76 3.1 ESE 32 43 17 23 1014.1 - 0.0
22/09:00am 25.9 25.4 22.2 80 2.5 SE 28 43 15 23 1014.1 1014.1 0.0
22/08:30am 26.1 26.2 22.6 81 2.4 SE 26 37 14 20 1014.1 - 0.0
22/08:11am 25.2 24.4 21.7 81 2.3 SE 28 48 15 26 1013.9 - 0.0
22/08:00am 26.1 26.4 22.2 79 2.6 SE 24 41 13 22 1013.5 - 0.0
22/07:30am 25.4 26.4 22.1 82 2.2 SE 20 33 11 18 1013.4 - 0.0
22/07:00am 25.2 25.4 22.1 83 2.1 SE 24 33 13 18 1013.1 - 0.0
22/06:30am 25.2 24.6 21.9 82 2.2 SE 28 39 15 21 1013.0 - 0.0
22/06:00am 25.2 25.8 22.1 83 2.1 SE 22 30 12 16 1012.9 1012.9 0.0
22/05:30am 25.4 25.2 22.1 82 2.2 SE 26 39 14 21 1013.0 - 0.0
22/05:00am 25.4 25.3 22.3 83 2.1 ESE 26 37 14 20 1012.9 - 0.0
22/04:30am 25.5 25.5 22.4 83 2.1 ESE 26 39 14 21 1012.7 - 0.0
22/04:00am 25.5 25.9 22.4 83 2.1 SE 24 37 13 20 1012.6 - 0.0
22/03:30am 25.3 24.8 22.2 83 2.1 SE 28 39 15 21 1012.4 - 0.0

Other Formats:

Comma delimited format used in spreadsheet applications
http://www.bom.gov.au/fwo/IDQ60801/IDQ60801.94174.axf

JavaScript Object Notation format (JSON) in row-major order
http://www.bom.gov.au/fwo/IDQ60801/IDQ60801.94174.json